Time;durP1;ratioP1;P1;durP2;ratioP2;P2;SDS_P1;SDS_P2;PMS_P1;PMS_P2;Temp;Humidity;BMP_temperature;BMP_pressure;BME280_temperature;BME280_humidity;BME280_pressure;Samples;Min_cycle;Max_cycle;Signal;HPM_P1;HPM_P2
2023/01/07 00:00:16;;;;;;;13.90;2.90;;;;;;;7.34;94.20;100705.97;104295;1312;22499;-81
2023/01/07 00:03:07;;;;;;;13.20;3.00;;;;;;;7.31;94.24;100710.29;104204;1312;22520;-80
2023/01/07 00:05:38;;;;;;;10.00;2.40;;;;;;;7.30;94.13;100712.95;104271;1309;22460;-81
2023/01/07 00:08:08;;;;;;;9.30;2.10;;;;;;;7.27;94.09;100713.11;104175;1299;22504;-80
2023/01/07 00:10:39;;;;;;;10.30;1.90;;;;;;;7.25;93.97;100704.60;104141;1309;22486;-81
2023/01/07 00:13:10;;;;;;;8.80;2.00;;;;;;;7.24;93.82;100699.00;104197;1309;22469;-80
2023/01/07 00:15:40;;;;;;;10.10;2.30;;;;;;;7.21;93.70;100698.95;104200;1309;22535;-80
2023/01/07 00:18:11;;;;;;;12.20;2.80;;;;;;;7.18;93.56;100706.13;104166;1305;22541;-80
2023/01/07 00:20:42;;;;;;;15.90;3.40;;;;;;;7.14;93.46;100716.16;104140;1309;23093;-80
2023/01/07 00:23:13;;;;;;;18.20;3.10;;;;;;;7.12;93.74;100716.77;104215;1308;22521;-81
2023/01/07 00:25:43;;;;;;;14.00;2.70;;;;;;;7.11;93.80;100710.45;104177;1309;22526;-81
2023/01/07 00:28:14;;;;;;;15.00;2.90;;;;;;;7.10;93.57;100707.46;104703;1294;24346;-81
2023/01/07 00:30:45;;;;;;;18.40;3.20;;;;;;;7.08;93.41;100712.13;104616;1302;25058;-81
2023/01/07 00:33:17;;;;;;;13.30;2.80;;;;;;;7.06;93.47;100709.89;104720;1288;23768;-81
2023/01/07 00:35:47;;;;;;;17.50;3.90;;;;;;;7.04;93.30;100706.41;104673;1292;24491;-81
2023/01/07 00:38:18;;;;;;;13.40;3.40;;;;;;;7.00;93.20;100707.79;104754;1299;22470;-81
2023/01/07 00:40:49;;;;;;;13.60;3.70;;;;;;;6.97;93.05;100708.91;104670;1302;22428;-81
2023/01/07 00:43:19;;;;;;;15.50;4.50;;;;;;;6.94;92.84;100710.34;104649;1288;22503;-81
2023/01/07 00:45:50;;;;;;;16.80;4.40;;;;;;;6.90;92.65;100711.36;104649;1277;25384;-82
2023/01/07 00:48:22;;;;;;;20.70;5.70;;;;;;;6.85;92.74;100710.70;104750;1302;22529;-81
2023/01/07 00:50:55;;;;;;;17.70;4.90;;;;;;;6.81;92.57;100713.91;104847;1278;22472;-81
2023/01/07 00:53:28;;;;;;;20.00;5.50;;;;;;;6.77;92.59;100715.61;104765;1307;22476;-81
2023/01/07 00:55:59;;;;;;;21.60;7.20;;;;;;;6.74;92.42;100717.32;104695;1294;25252;-81
2023/01/07 00:58:30;;;;;;;14.40;4.90;;;;;;;6.70;92.16;100720.53;104703;1291;22478;-81
2023/01/07 01:01:03;;;;;;;18.10;4.90;;;;;;;6.65;92.08;100726.30;104684;1308;22494;-81
2023/01/07 01:03:34;;;;;;;15.70;5.10;;;;;;;6.60;92.05;100729.77;104681;1303;23254;-81
2023/01/07 01:06:07;;;;;;;15.60;4.90;;;;;;;6.54;91.80;100724.92;104684;1285;22443;-81
2023/01/07 01:08:37;;;;;;;16.30;4.30;;;;;;;6.50;91.82;100732.33;104620;1293;22454;-81
2023/01/07 01:11:10;;;;;;;15.30;3.50;;;;;;;6.47;91.61;100734.24;104613;1301;23361;-80
2023/01/07 01:13:41;;;;;;;13.80;3.70;;;;;;;6.43;91.63;100740.60;104758;1307;22524;-80
2023/01/07 01:16:15;;;;;;;19.50;4.10;;;;;;;6.40;91.68;100736.19;104759;1300;22491;-81
2023/01/07 01:18:46;;;;;;;14.00;3.70;;;;;;;6.38;91.70;100735.07;104790;1278;22475;-81
2023/01/07 01:21:18;;;;;;;14.60;3.20;;;;;;;6.36;91.80;100733.70;104662;1299;24335;-80
2023/01/07 01:23:48;;;;;;;12.00;3.20;;;;;;;6.34;91.62;100733.98;104624;1304;22993;-81
2023/01/07 01:26:19;;;;;;;12.80;3.40;;;;;;;6.32;91.56;100734.82;104706;1291;22530;-81
2023/01/07 01:28:50;;;;;;;10.40;2.50;;;;;;;6.30;91.39;100735.69;104645;1303;22505;-81
2023/01/07 01:31:20;;;;;;;11.30;3.40;;;;;;;6.28;91.42;100740.42;104749;1302;22516;-81
2023/01/07 01:33:55;;;;;;;11.90;4.00;;;;;;;6.26;91.48;100729.52;104726;1304;23474;-81
2023/01/07 01:36:25;;;;;;;13.40;4.40;;;;;;;6.24;91.46;100727.91;104691;1300;25227;-81
2023/01/07 01:38:56;;;;;;;11.70;4.60;;;;;;;6.22;91.37;100717.92;104723;1304;25272;-80
2023/01/07 01:41:27;;;;;;;14.40;5.20;;;;;;;6.19;91.33;100722.67;104690;1304;24280;-80
2023/01/07 01:43:58;;;;;;;12.00;4.20;;;;;;;6.17;91.37;100717.50;104644;1299;23921;-80
2023/01/07 01:46:34;;;;;;;12.80;4.30;;;;;;;6.14;91.34;100715.61;104677;1300;22475;-80
2023/01/07 01:49:12;;;;;;;11.80;3.30;;;;;;;6.11;91.24;100713.62;104677;1300;24324;-80
2023/01/07 01:51:49;;;;;;;11.20;3.60;;;;;;;6.09;91.26;100713.46;104640;1304;24266;-80
2023/01/07 01:54:21;;;;;;;12.70;4.20;;;;;;;6.06;91.20;100716.45;104658;1294;22504;-81
2023/01/07 01:56:56;;;;;;;13.10;3.60;;;;;;;6.03;91.04;100720.41;104598;1293;22477;-81
2023/01/07 01:59:30;;;;;;;12.90;3.60;;;;;;;6.00;91.08;100719.86;104770;1304;22486;-81
2023/01/07 02:02:01;;;;;;;12.80;3.50;;;;;;;5.96;90.91;100716.48;104694;1301;24338;-81
2023/01/07 02:04:33;;;;;;;15.00;5.00;;;;;;;5.92;90.89;100711.70;104748;1301;22496;-81
2023/01/07 02:07:07;;;;;;;16.50;6.00;;;;;;;5.89;90.98;100711.98;104745;1304;22540;-82
2023/01/07 02:09:37;;;;;;;17.90;6.60;;;;;;;5.87;90.99;100711.98;104800;1286;22424;-81
2023/01/07 02:12:17;;;;;;;20.20;7.80;;;;;;;5.85;90.95;100709.71;104710;1287;22465;-80
2023/01/07 02:15:04;;;;;;;17.70;6.80;;;;;;;5.83;91.06;100705.02;104705;1302;22449;-80
2023/01/07 02:18:01;;;;;;;17.30;6.00;;;;;;;5.82;91.11;100702.73;104610;1293;24365;-80
2023/01/07 02:20:45;;;;;;;19.00;7.10;;;;;;;5.81;91.21;100702.55;104689;1287;23006;-80
2023/01/07 02:23:52;;;;;;;16.30;6.60;;;;;;;5.80;91.27;100697.48;104584;1288;25387;-81
2023/01/07 02:26:53;;;;;;;18.80;7.50;;;;;;;5.78;91.22;100694.61;104579;1303;24306;-81
2023/01/07 02:29:57;;;;;;;16.70;7.50;;;;;;;5.75;91.23;100691.75;104649;1290;24659;-81
2023/01/07 02:32:42;;;;;;;19.50;6.70;;;;;;;5.74;91.35;100687.34;104338;1307;25259;-81
2023/01/07 02:35:29;;;;;;;16.40;6.10;;;;;;;5.74;91.35;100686.95;104436;1301;22510;-81
2023/01/07 02:38:09;;;;;;;15.00;5.60;;;;;;;5.74;91.32;100682.13;104358;1303;22637;-81
2023/01/07 02:40:50;;;;;;;14.60;4.20;;;;;;;5.73;91.43;100683.80;104328;1306;22462;-81
2023/01/07 02:43:27;;;;;;;17.60;6.20;;;;;;;5.73;91.37;100687.00;104418;1288;25896;-80
2023/01/07 02:46:09;;;;;;;18.80;5.90;;;;;;;5.73;91.45;100692.93;104385;1291;23829;-81
2023/01/07 02:48:41;;;;;;;16.50;5.90;;;;;;;5.71;91.35;100692.41;104419;1291;25574;-81
2023/01/07 02:51:11;;;;;;;20.50;6.80;;;;;;;5.69;91.40;100700.45;104475;1291;22473;-80
2023/01/07 02:53:48;;;;;;;23.00;8.40;;;;;;;5.67;91.28;100707.54;104471;1283;22407;-80
2023/01/07 02:56:31;;;;;;;22.20;9.20;;;;;;;5.65;91.30;100710.75;104350;1306;22511;-81
2023/01/07 02:59:18;;;;;;;26.60;9.90;;;;;;;5.65;91.44;100715.52;104445;1306;22561;-81
2023/01/07 03:02:12;;;;;;;25.10;9.40;;;;;;;5.65;91.57;100711.86;104463;1299;22505;-80
2023/01/07 03:04:59;;;;;;;27.70;10.10;;;;;;;5.64;91.56;100710.94;104451;1283;22439;-81
2023/01/07 03:07:41;;;;;;;26.00;8.80;;;;;;;5.62;91.64;100703.23;104395;1292;24280;-81
2023/01/07 03:10:21;;;;;;;25.10;9.80;;;;;;;5.60;91.77;100698.23;104561;1284;22504;-81
2023/01/07 03:12:59;;;;;;;24.10;11.00;;;;;;;5.58;91.71;100696.95;104710;1282;22465;-81
2023/01/07 03:15:36;;;;;;;24.10;8.00;;;;;;;5.57;91.78;100693.41;104789;1302;22472;-81
2023/01/07 03:18:13;;;;;;;24.10;9.60;;;;;;;5.56;91.60;100691.70;104720;1302;22467;-81
2023/01/07 03:20:47;;;;;;;24.60;9.70;;;;;;;5.55;91.61;100693.52;104885;1284;23211;-81
2023/01/07 03:23:22;;;;;;;24.90;9.10;;;;;;;5.55;91.76;100695.04;105237;1294;22494;-81
2023/01/07 03:25:55;;;;;;;24.80;10.20;;;;;;;5.55;91.64;100691.46;105140;1280;22460;-81
2023/01/07 03:28:31;;;;;;;21.60;8.50;;;;;;;5.55;91.65;100691.07;104842;1278;23324;-81
2023/01/07 03:31:04;;;;;;;20.40;7.10;;;;;;;5.54;91.60;100695.23;104708;1302;25324;-81
2023/01/07 03:33:41;;;;;;;20.40;7.10;;;;;;;5.52;91.61;100698.20;104818;1288;22466;-80
2023/01/07 03:36:16;;;;;;;18.20;7.10;;;;;;;5.49;91.72;100697.23;104717;1302;22532;-80
2023/01/07 03:38:48;;;;;;;20.00;7.00;;;;;;;5.48;91.77;100695.36;104727;1302;26516;-81
2023/01/07 03:44:04;;;;;;;14.90;5.70;;;;;;;5.44;92.34;100697.30;104708;1288;25645;-81
2023/01/07 03:46:36;;;;;;;15.70;5.20;;;;;;;5.44;92.51;100688.58;104705;1293;22520;-81
2023/01/07 03:49:07;;;;;;;17.90;5.10;;;;;;;5.44;92.69;100683.83;104798;1302;27599;-81
2023/01/07 03:51:38;;;;;;;15.30;5.20;;;;;;;5.45;92.78;100685.80;104724;1302;23238;-80
2023/01/07 03:54:08;;;;;;;15.10;4.50;;;;;;;5.45;93.06;100684.77;104808;1302;22528;-81
2023/01/07 03:56:39;;;;;;;12.90;3.80;;;;;;;5.46;93.38;100684.75;104753;1302;22529;-80
2023/01/07 03:59:10;;;;;;;12.30;3.90;;;;;;;5.47;93.55;100681.00;104785;1287;23870;-81
2023/01/07 04:01:41;;;;;;;15.80;4.70;;;;;;;5.48;93.68;100677.18;104810;1295;22965;-81
2023/01/07 04:04:12;;;;;;;13.10;4.10;;;;;;;5.49;93.52;100680.62;104754;1284;22507;-81
2023/01/07 04:06:43;;;;;;;14.80;4.30;;;;;;;5.51;93.43;100685.02;104748;1295;24159;-81
2023/01/07 04:09:17;;;;;;;16.30;4.40;;;;;;;5.50;93.29;100681.92;104729;1282;22497;-81
2023/01/07 04:11:48;;;;;;;10.40;3.30;;;;;;;5.51;93.19;100681.20;104760;1302;22417;-81
2023/01/07 04:14:18;;;;;;;14.90;3.60;;;;;;;5.50;93.08;100682.17;104800;1291;22466;-81
2023/01/07 04:16:53;;;;;;;12.00;3.80;;;;;;;5.51;92.82;100682.39;104838;1294;24292;-80
2023/01/07 04:19:23;;;;;;;12.30;3.50;;;;;;;5.53;92.73;100684.58;104721;1295;22525;-81
2023/01/07 04:21:54;;;;;;;15.30;4.00;;;;;;;5.52;92.70;100681.66;104808;1286;25390;-81
2023/01/07 04:24:25;;;;;;;12.20;3.40;;;;;;;5.50;92.56;100678.54;104865;1299;22630;-81
2023/01/07 04:26:55;;;;;;;12.30;3.30;;;;;;;5.48;92.49;100684.35;104679;1277;22543;-80
2023/01/07 04:29:26;;;;;;;9.80;2.60;;;;;;;5.47;92.43;100676.97;104699;1281;22456;-81
2023/01/07 04:31:57;;;;;;;10.70;3.30;;;;;;;5.45;92.28;100676.23;104793;1302;22662;-80
2023/01/07 04:34:28;;;;;;;9.40;2.90;;;;;;;5.44;92.16;100676.95;104828;1302;22532;-81
2023/01/07 04:36:59;;;;;;;13.60;3.70;;;;;;;5.42;92.06;100675.44;104778;1293;22506;-80
2023/01/07 04:39:29;;;;;;;15.40;4.20;;;;;;;5.39;91.86;100674.40;104725;1302;24264;-80
2023/01/07 04:42:00;;;;;;;13.60;4.20;;;;;;;5.37;91.82;100674.30;104639;1302;23154;-80
2023/01/07 04:44:31;;;;;;;11.60;3.30;;;;;;;5.34;91.66;100679.34;104603;1293;24302;-80
2023/01/07 04:47:01;;;;;;;12.30;4.10;;;;;;;5.31;91.52;100677.13;104720;1288;22473;-80
2023/01/07 04:49:32;;;;;;;15.00;4.50;;;;;;;5.26;91.38;100676.77;104685;1281;25744;-81
2023/01/07 04:52:03;;;;;;;13.30;4.90;;;;;;;5.23;91.33;100676.05;104743;1283;23479;-81
2023/01/07 04:54:33;;;;;;;13.20;4.50;;;;;;;5.18;91.38;100679.42;104708;1278;22612;-81
2023/01/07 04:57:04;;;;;;;14.80;5.20;;;;;;;5.15;91.35;100687.33;104965;1302;26489;-81
2023/01/07 04:59:35;;;;;;;15.80;5.00;;;;;;;5.12;91.14;100689.06;104712;1283;22462;-80
2023/01/07 05:02:05;;;;;;;16.20;4.90;;;;;;;5.07;91.03;100693.90;104808;1301;22498;-81
2023/01/07 05:04:36;;;;;;;11.80;4.00;;;;;;;5.05;91.15;100698.15;104769;1288;22472;-80
2023/01/07 05:07:07;;;;;;;12.70;4.00;;;;;;;5.02;91.17;100693.95;104787;1279;22523;-81
2023/01/07 05:09:38;;;;;;;15.00;4.50;;;;;;;4.99;91.20;100695.91;104756;1294;22456;-80
2023/01/07 05:12:08;;;;;;;13.70;4.10;;;;;;;4.97;91.18;100694.70;104708;1294;22510;-80
2023/01/07 05:14:39;;;;;;;14.30;3.70;;;;;;;4.95;91.34;100698.38;104725;1302;22542;-80
2023/01/07 05:17:10;;;;;;;16.80;3.90;;;;;;;4.93;91.46;100695.50;104752;1283;22506;-80
2023/01/07 05:19:41;;;;;;;13.10;4.50;;;;;;;4.91;91.46;100690.48;104705;1285;22776;-81
2023/01/07 05:22:11;;;;;;;15.40;4.90;;;;;;;4.90;91.44;100689.08;104765;1278;22523;-81
2023/01/07 05:24:42;;;;;;;13.40;3.90;;;;;;;4.89;91.66;100684.52;104715;1302;24305;-81
2023/01/07 05:27:13;;;;;;;16.50;5.00;;;;;;;4.88;91.75;100681.30;104762;1302;22461;-81
2023/01/07 05:29:43;;;;;;;13.30;3.70;;;;;;;4.87;91.68;100681.02;104615;1301;22945;-81
2023/01/07 05:32:14;;;;;;;15.70;4.00;;;;;;;4.86;91.70;100682.21;104752;1294;22464;-80
2023/01/07 05:34:45;;;;;;;15.30;4.10;;;;;;;4.86;91.78;100686.11;104760;1302;22461;-80
2023/01/07 05:37:16;;;;;;;14.50;4.10;;;;;;;4.86;91.77;100684.48;104694;1292;22513;-82
2023/01/07 05:39:46;;;;;;;15.00;4.70;;;;;;;4.86;91.73;100683.77;104742;1295;22462;-81
2023/01/07 05:42:17;;;;;;;14.30;4.80;;;;;;;4.86;91.86;100687.84;104654;1296;22764;-81
2023/01/07 05:44:48;;;;;;;15.20;4.50;;;;;;;4.85;91.95;100686.89;104646;1302;22533;-80
2023/01/07 05:47:18;;;;;;;15.40;4.90;;;;;;;4.85;91.96;100682.64;104700;1302;25380;-81
2023/01/07 05:49:49;;;;;;;16.70;5.70;;;;;;;4.85;91.99;100683.83;104749;1302;22466;-80
2023/01/07 05:52:20;;;;;;;16.50;5.60;;;;;;;4.83;92.03;100681.33;104754;1302;22537;-81
2023/01/07 05:54:51;;;;;;;19.10;5.80;;;;;;;4.82;92.00;100684.42;104736;1302;25290;-81
2023/01/07 05:57:21;;;;;;;14.10;5.40;;;;;;;4.82;92.08;100683.27;104769;1302;22915;-80
2023/01/07 05:59:52;;;;;;;14.90;5.30;;;;;;;4.82;92.10;100684.27;104831;1302;22459;-81
2023/01/07 06:02:22;;;;;;;15.60;5.60;;;;;;;4.82;92.15;100688.33;104754;1302;24305;-81
2023/01/07 06:04:53;;;;;;;14.60;5.40;;;;;;;4.81;92.16;100696.48;104863;1302;22462;-81
2023/01/07 06:07:24;;;;;;;16.70;4.90;;;;;;;4.82;92.20;100696.45;104754;1300;22472;-80
2023/01/07 06:09:55;;;;;;;15.50;5.00;;;;;;;4.83;92.29;100700.30;104784;1278;26273;-81
2023/01/07 06:12:25;;;;;;;15.90;5.80;;;;;;;4.83;92.24;100699.12;104806;1302;24272;-80
2023/01/07 06:14:56;;;;;;;15.40;5.70;;;;;;;4.84;92.40;100694.77;104806;1302;22463;-80
2023/01/07 06:17:26;;;;;;;18.60;7.10;;;;;;;4.83;92.24;100698.09;104855;1302;22611;-80
2023/01/07 06:19:57;;;;;;;17.50;6.60;;;;;;;4.82;92.43;100696.70;104694;1294;22482;-80
2023/01/07 06:22:28;;;;;;;16.30;5.40;;;;;;;4.82;92.45;100697.48;104736;1284;22473;-81
2023/01/07 06:24:59;;;;;;;17.50;6.80;;;;;;;4.83;92.38;100697.23;104689;1302;25927;-80
2023/01/07 06:27:30;;;;;;;18.60;6.90;;;;;;;4.83;92.54;100694.84;104658;1281;22474;-81
2023/01/07 06:30:01;;;;;;;15.90;5.70;;;;;;;4.83;92.47;100693.91;104746;1281;22516;-80
2023/01/07 06:32:32;;;;;;;17.30;6.50;;;;;;;4.83;92.52;100698.56;104718;1296;25872;-81
2023/01/07 06:35:02;;;;;;;19.60;8.20;;;;;;;4.83;92.48;100701.10;104702;1297;22480;-80
2023/01/07 06:37:33;;;;;;;20.70;8.40;;;;;;;4.81;92.33;100707.54;104728;1295;22445;-81
2023/01/07 06:40:05;;;;;;;20.60;8.00;;;;;;;4.79;92.37;100707.04;104754;1280;22463;-80
2023/01/07 06:42:36;;;;;;;23.30;8.80;;;;;;;4.77;92.25;100709.83;104702;1302;24411;-81
2023/01/07 06:45:08;;;;;;;21.90;8.50;;;;;;;4.75;92.28;100709.33;104657;1302;24337;-81
2023/01/07 06:47:38;;;;;;;22.80;9.50;;;;;;;4.74;92.28;100710.15;104710;1296;25276;-80
2023/01/07 06:50:11;;;;;;;22.50;9.60;;;;;;;4.73;92.27;100707.08;104678;1296;22469;-84
2023/01/07 06:52:41;;;;;;;26.30;10.50;;;;;;;4.74;92.34;100708.56;104556;1294;23088;-84
2023/01/07 06:55:12;;;;;;;27.50;9.90;;;;;;;4.72;92.34;100709.71;104694;1294;25262;-84
2023/01/07 06:57:43;;;;;;;23.20;9.80;;;;;;;4.71;92.41;100702.39;104659;1302;22462;-83
2023/01/07 07:00:15;;;;;;;20.90;8.80;;;;;;;4.70;92.54;100706.67;104676;1288;22780;-83
2023/01/07 07:02:46;;;;;;;19.90;8.50;;;;;;;4.70;92.77;100711.98;104570;1302;25267;-83
2023/01/07 07:05:17;;;;;;;20.30;6.90;;;;;;;4.68;92.87;100712.73;104641;1286;22520;-84
2023/01/07 07:07:48;;;;;;;18.20;6.60;;;;;;;4.69;92.93;100715.30;104651;1302;22482;-83
2023/01/07 07:10:19;;;;;;;16.10;6.70;;;;;;;4.69;93.17;100712.54;104638;1302;23811;-84
2023/01/07 07:12:49;;;;;;;17.60;6.60;;;;;;;4.70;93.29;100714.43;104583;1288;22461;-84
2023/01/07 07:15:20;;;;;;;17.10;6.70;;;;;;;4.70;93.41;100717.42;104687;1295;22551;-84
2023/01/07 07:17:51;;;;;;;16.30;6.90;;;;;;;4.71;93.46;100712.17;104634;1274;22477;-84
2023/01/07 07:20:22;;;;;;;17.80;7.30;;;;;;;4.72;93.58;100711.52;104614;1302;22463;-84
2023/01/07 07:22:53;;;;;;;17.60;7.30;;;;;;;4.73;93.77;100708.73;104634;1296;25280;-83
2023/01/07 07:25:24;;;;;;;15.30;5.60;;;;;;;4.75;93.87;100709.34;104751;1302;25925;-84
2023/01/07 07:27:54;;;;;;;19.30;7.10;;;;;;;4.76;94.03;100713.17;105080;1278;22489;-83
2023/01/07 07:30:25;;;;;;;21.80;8.00;;;;;;;4.79;94.11;100706.09;105093;1286;23906;-83
2023/01/07 07:32:56;;;;;;;20.60;9.30;;;;;;;4.80;94.23;100702.04;105004;1302;22646;-84
2023/01/07 07:35:27;;;;;;;27.60;11.00;;;;;;;4.82;94.20;100698.42;104717;1296;22519;-84
2023/01/07 07:37:57;;;;;;;24.00;10.70;;;;;;;4.84;94.36;100696.95;104710;1302;25535;-83
2023/01/07 07:40:28;;;;;;;23.70;10.00;;;;;;;4.85;94.38;100694.73;104617;1302;25270;-83
2023/01/07 07:43:00;;;;;;;23.10;9.60;;;;;;;4.85;94.46;100694.40;104549;1296;25246;-84
2023/01/07 07:45:31;;;;;;;22.10;9.60;;;;;;;4.87;94.42;100698.65;104685;1294;22530;-83
2023/01/07 07:48:02;;;;;;;21.40;8.80;;;;;;;4.89;94.34;100696.23;104620;1302;24284;-84
2023/01/07 07:50:33;;;;;;;36.00;16.10;;;;;;;4.91;94.45;100698.39;104614;1280;22458;-83
2023/01/07 07:53:04;;;;;;;78.10;39.30;;;;;;;4.93;94.68;100697.31;104626;1302;24347;-83
2023/01/07 07:55:36;;;;;;;74.70;36.30;;;;;;;4.96;94.75;100700.65;104690;1294;25398;-83
2023/01/07 07:58:07;;;;;;;62.00;32.30;;;;;;;4.99;94.68;100699.41;104637;1302;25260;-83
2023/01/07 08:00:38;;;;;;;61.50;30.10;;;;;;;5.02;94.64;100693.48;104664;1278;22525;-83
2023/01/07 08:03:08;;;;;;;65.10;33.20;;;;;;;5.05;94.88;100696.80;104670;1302;24258;-85
2023/01/07 08:05:42;;;;;;;84.00;38.50;;;;;;;5.08;95.08;100700.37;104602;1302;22463;-84
2023/01/07 08:08:14;;;;;;;92.50;38.40;;;;;;;5.12;95.30;100697.50;104585;1297;22515;-85
2023/01/07 08:10:45;;;;;;;82.00;35.70;;;;;;;5.17;95.53;100687.84;104623;1296;25279;-84
2023/01/07 08:13:16;;;;;;;69.50;29.10;;;;;;;5.21;95.67;100681.08;104622;1300;22412;-85
2023/01/07 08:15:48;;;;;;;76.00;27.70;;;;;;;5.25;95.92;100681.77;104714;1293;24366;-84
2023/01/07 08:18:19;;;;;;;97.50;36.10;;;;;;;5.29;95.87;100685.78;104595;1295;22511;-84
2023/01/07 08:20:50;;;;;;;138.70;51.70;;;;;;;5.33;95.96;100690.75;104553;1302;22491;-84
2023/01/07 08:23:21;;;;;;;164.90;62.30;;;;;;;5.37;96.07;100686.47;104641;1302;23909;-84
2023/01/07 08:25:52;;;;;;;174.70;74.60;;;;;;;5.42;96.02;100681.83;104647;1302;22488;-84
2023/01/07 08:28:23;;;;;;;159.20;68.80;;;;;;;5.47;96.30;100685.73;104681;1301;22697;-84
2023/01/07 08:30:53;;;;;;;140.20;56.40;;;;;;;5.52;96.17;100685.70;104798;1278;22472;-84
2023/01/07 08:33:24;;;;;;;134.90;57.80;;;;;;;5.56;96.14;100679.19;104831;1279;25425;-83
2023/01/07 08:35:55;;;;;;;111.40;51.10;;;;;;;5.63;96.40;100681.30;104609;1302;22783;-84
2023/01/07 08:38:27;;;;;;;97.00;45.60;;;;;;;5.69;96.41;100682.87;104757;1294;23230;-84
2023/01/07 08:40:58;;;;;;;96.50;44.10;;;;;;;5.75;96.75;100687.00;104686;1287;24298;-84
2023/01/07 08:43:29;;;;;;;96.60;41.30;;;;;;;5.81;96.78;100687.80;104686;1286;22502;-84
2023/01/07 08:46:00;;;;;;;92.00;35.60;;;;;;;5.86;96.98;100693.01;104695;1291;22640;-85
2023/01/07 08:48:30;;;;;;;83.50;36.10;;;;;;;5.91;96.91;100690.34;104646;1283;22469;-85
2023/01/07 08:51:01;;;;;;;76.60;34.70;;;;;;;5.98;96.99;100687.63;104615;1278;23884;-84
2023/01/07 08:53:32;;;;;;;80.40;35.90;;;;;;;6.03;97.00;100688.11;104642;1302;22540;-83
2023/01/07 08:56:03;;;;;;;71.40;34.60;;;;;;;6.08;97.03;100690.83;104920;1302;24296;-80
2023/01/07 08:58:33;;;;;;;70.50;32.70;;;;;;;6.12;96.61;100693.90;104937;1302;22641;-82
2023/01/07 09:01:06;;;;;;;58.10;26.70;;;;;;;6.16;96.60;100695.50;104955;1271;22468;-82
2023/01/07 09:03:38;;;;;;;46.70;22.30;;;;;;;6.20;96.69;100702.13;106066;1288;24961;-80
2023/01/07 09:06:09;;;;;;;43.80;17.00;;;;;;;6.22;96.58;100709.84;104821;1281;22578;-80
2023/01/07 09:08:40;;;;;;;30.00;14.90;;;;;;;6.22;96.79;100710.16;104586;1302;22460;-83
2023/01/07 09:11:11;;;;;;;28.90;13.80;;;;;;;6.22;96.64;100714.05;104705;1277;22500;-81
2023/01/07 09:13:41;;;;;;;30.50;13.90;;;;;;;6.22;96.63;100715.47;105003;1286;24313;-81
2023/01/07 09:16:12;;;;;;;30.50;14.70;;;;;;;6.24;96.86;100714.39;104779;1286;22552;-81
2023/01/07 09:18:44;;;;;;;27.40;12.70;;;;;;;6.28;97.15;100716.80;104587;1287;22884;-81
2023/01/07 09:21:15;;;;;;;26.80;13.50;;;;;;;6.32;97.35;100712.98;104751;1286;22537;-80
2023/01/07 09:23:45;;;;;;;30.10;14.70;;;;;;;6.36;97.64;100712.39;104640;1278;22453;-81
2023/01/07 09:26:16;;;;;;;38.20;18.00;;;;;;;6.40;97.78;100706.80;104759;1286;22496;-82
2023/01/07 09:28:47;;;;;;;36.90;18.20;;;;;;;6.43;98.00;100713.11;104632;1294;23034;-82
2023/01/07 09:31:18;;;;;;;36.40;18.90;;;;;;;6.48;98.07;100714.42;104717;1295;22580;-82
2023/01/07 09:33:49;;;;;;;28.40;13.00;;;;;;;6.53;98.37;100712.38;104664;1297;22540;-82
2023/01/07 09:36:19;;;;;;;25.80;11.70;;;;;;;6.57;98.34;100713.83;104766;1286;24257;-82
2023/01/07 09:38:50;;;;;;;23.00;10.00;;;;;;;6.62;98.23;100716.46;104690;1296;22486;-83
2023/01/07 09:41:31;;;;;;;24.90;11.40;;;;;;;6.66;98.26;100719.77;104725;1302;22494;-81
2023/01/07 09:44:12;;;;;;;25.20;10.70;;;;;;;6.71;98.42;100711.53;104768;1280;23803;-81
2023/01/07 09:46:45;;;;;;;25.20;11.00;;;;;;;6.77;98.79;100703.41;104733;1302;25214;-78
2023/01/07 09:49:18;;;;;;;25.40;10.70;;;;;;;6.84;99.13;100702.57;104705;1294;22701;-82
2023/01/07 09:51:55;;;;;;;27.00;12.20;;;;;;;6.92;99.25;100701.63;104809;1281;22495;-82
2023/01/07 09:54:34;;;;;;;26.20;12.20;;;;;;;6.99;99.41;100698.23;104787;1286;25755;-82
2023/01/07 09:57:05;;;;;;;27.10;13.60;;;;;;;7.07;99.70;100698.05;104880;1280;26619;-82
2023/01/07 09:59:36;;;;;;;28.10;12.90;;;;;;;7.13;99.71;100695.93;104763;1286;22457;-82
2023/01/07 10:02:26;;;;;;;31.20;13.70;;;;;;;7.21;99.77;100694.84;104762;1286;22435;-82
2023/01/07 10:05:08;;;;;;;28.50;12.90;;;;;;;7.28;99.46;100690.40;104756;1288;23810;-82
2023/01/07 10:07:45;;;;;;;27.40;12.40;;;;;;;7.31;99.14;100686.95;104835;1280;22465;-82
2023/01/07 10:10:23;;;;;;;24.10;11.20;;;;;;;7.33;99.06;100679.35;104889;1302;25386;-82
2023/01/07 10:13:01;;;;;;;23.60;11.50;;;;;;;7.37;99.04;100677.34;104907;1294;22512;-82
2023/01/07 10:15:51;;;;;;;27.30;13.80;;;;;;;7.40;98.82;100675.73;104700;1302;24191;-82
2023/01/07 10:18:37;;;;;;;26.50;12.60;;;;;;;7.43;98.85;100675.58;104685;1296;22544;-82
2023/01/07 10:21:16;;;;;;;25.60;12.30;;;;;;;7.46;98.98;100671.80;104723;1288;23414;-81
2023/01/07 10:23:52;;;;;;;25.10;12.50;;;;;;;7.49;98.91;100667.09;104690;1302;25878;-82
2023/01/07 10:26:33;;;;;;;25.30;12.00;;;;;;;7.53;99.05;100662.83;104608;1295;25374;-82
2023/01/07 10:29:11;;;;;;;26.50;11.10;;;;;;;7.56;99.02;100655.27;104673;1297;22559;-81
2023/01/07 10:31:43;;;;;;;31.40;16.60;;;;;;;7.59;99.10;100652.00;104705;1295;22447;-82
2023/01/07 10:34:21;;;;;;;38.50;18.70;;;;;;;7.62;99.09;100650.79;104779;1295;25270;-82
2023/01/07 10:37:01;;;;;;;34.70;18.20;;;;;;;7.66;99.12;100649.92;104605;1302;24263;-81
2023/01/07 10:39:34;;;;;;;;;;;;;;;7.72;99.25;100650.05;104754;1301;25132;-82
2023/01/07 10:42:12;;;;;;;25.20;12.80;;;;;;;7.75;99.27;100649.52;104657;1302;22556;-82
2023/01/07 10:45:14;;;;;;;22.80;11.10;;;;;;;7.78;99.11;100650.53;104667;1302;22447;-81
2023/01/07 10:48:01;;;;;;;22.70;9.70;;;;;;;7.81;98.98;100650.25;104666;1271;22476;-81
2023/01/07 10:50:45;;;;;;;21.70;10.40;;;;;;;7.85;98.89;100648.40;104691;1302;25380;-83
2023/01/07 10:53:27;;;;;;;19.20;9.20;;;;;;;7.89;99.03;100649.67;104757;1302;24343;-83
2023/01/07 10:56:09;;;;;;;23.60;10.80;;;;;;;7.93;99.06;100643.95;104725;1288;24216;-83
2023/01/07 10:58:43;;;;;;;20.30;9.80;;;;;;;7.96;99.09;100645.29;104630;1302;22462;-82
2023/01/07 11:01:21;;;;;;;22.20;10.30;;;;;;;8.00;99.09;100640.15;104941;1302;25285;-82
2023/01/07 11:03:54;;;;;;;32.80;15.60;;;;;;;8.03;99.16;100635.64;104731;1295;22471;-82
2023/01/07 11:06:34;;;;;;;33.30;16.40;;;;;;;8.07;99.02;100634.14;104810;1278;25264;-82
2023/01/07 11:09:10;;;;;;;40.60;21.10;;;;;;;8.12;99.17;100629.77;104753;1278;25400;-83
2023/01/07 11:11:43;;;;;;;42.40;23.30;;;;;;;8.16;99.29;100625.41;104777;1298;22544;-82
2023/01/07 11:14:19;;;;;;;45.10;23.50;;;;;;;8.21;99.41;100621.82;104872;1300;22490;-82
2023/01/07 11:16:56;;;;;;;35.40;18.80;;;;;;;8.25;99.34;100613.83;104780;1302;22501;-82
2023/01/07 11:19:43;;;;;;;30.80;16.40;;;;;;;8.27;99.28;100603.43;104672;1281;25255;-83
2023/01/07 11:22:32;;;;;;;26.00;13.20;;;;;;;8.30;99.24;100601.89;104776;1271;24289;-82
2023/01/07 11:25:22;;;;;;;32.80;14.60;;;;;;;8.33;99.12;100598.41;104783;1288;22458;-83
2023/01/07 11:27:52;;;;;;;30.00;14.40;;;;;;;8.37;99.09;100593.42;104699;1290;22461;-82
2023/01/07 11:30:27;;;;;;;28.30;12.30;;;;;;;8.40;99.27;100590.53;104692;1297;22425;-83
2023/01/07 11:33:03;;;;;;;24.70;12.30;;;;;;;8.42;99.15;100577.24;104995;1302;24281;-82
2023/01/07 11:35:35;;;;;;;22.90;10.40;;;;;;;8.45;99.13;100574.52;105417;1288;22509;-82
2023/01/07 11:38:30;;;;;;;29.30;14.40;;;;;;;8.47;98.97;100573.33;105339;1297;22419;-82
2023/01/07 11:41:02;;;;;;;31.30;15.20;;;;;;;8.50;99.14;100576.21;104723;1302;22600;-82
2023/01/07 11:43:40;;;;;;;35.00;16.20;;;;;;;8.53;98.89;100576.10;104633;1302;22538;-82
2023/01/07 11:46:15;;;;;;;31.10;14.30;;;;;;;8.56;98.96;100573.92;104701;1302;22894;-82